Old Nevada, Nevada
Current Conditions -  °F | °C
As of 5:56 PM on Saturday 25 Oct 2014 (Local Time) from KHND Reporting Station
Clear Clear  
Wind Chill: 80°   Ceiling: Unl
Heat Index: 80°   Visibility: 10mi
Dew Point: 41°   Wind: 15mph
Humidity: 25%   Direction: 230°SW
Pressure: 29.96"   Gusts: NA
Location:  35.8437°N, 115.134°W
Report Text: KHND 260056Z 23013KT 10SM CLR 27/05 A2996 RMK AO2 T02660050 SLP128
Loading
Personal Weather Stations






























Interactive Weather Map
Tropical Storm Tracking
New forecast layout! Learn more

10-Day Weather Forecast

Advertisements
Track Severe Weather on mobile